• Join FlightAware (Why Join?)
  • Login
  • US Flag 
03:21AM EDT


 

Airport Tracker/Info


-or-


 

Live Flight TrackerFlight Track Log ✈ N173DS ✈ 15-Jun-2014 ✈ KTPA - KORL

Flight Track Log - Related Links

Times and Time Zones

All times are in EDT time to prevent confusion due to time zone crossing. See the N173DS flight status page for this flight to view local times or setup timezone preferences in your user account.

Time Position Orientation Groundspeed Altitude Reporting Facility
EDT Latitude Longitude Course Direction KTS MPH feet Rate Location/Type
11:18AM 27.9667 -82.5333 180° South 183 211 700  Level Tampa TRACON
11:19AM 27.9333 -82.5333 180° South 198 228 1,800 3,240 Climbing Tampa TRACON
11:20AM 27.8833 -82.5167 164° South 230 265 5,300 3,600 Climbing Tampa TRACON
11:21AM 27.8833 -82.4500 90° East 250 288 9,000 3,000 Climbing Tampa TRACON
11:22AM 27.9000 -82.3667 77° East 299 344 11,000 1,020 Climbing Tampa TRACON
11:23AM 27.9167 -82.2667 79° East 327 376 11,000  Level Tampa TRACON
11:24AM 27.9500 -82.1667 69° East 331 381 11,000  Level Tampa TRACON
11:26AM 28.0000 -81.9833 73° East 334 384 11,000  Level Orlando TRACON
11:26AM 28.0142 -81.9542 61° Northeast 332 382 11,000 -180 Level Miami Center
11:27AM 28.0708 -81.8444 60° Northeast 333 383 10,800 -600 Descending Miami Center
11:28AM 28.1506 -81.8061 23° Northeast 313 360 9,800 -1,080 Descending Miami Center
11:29AM 28.2194 -81.7619 29° Northeast 288 331 8,600 -1,440 Descending Miami Center
11:30AM 28.2764 -81.6919 47° Northeast 298 343 6,800 -1,800 Descending Miami Center
11:31AM 28.3336 -81.6283 44° Northeast 291 335 5,000 -1,860 Descending Miami Center
11:32AM 28.3958 -81.5594 44° Northeast 274 315 3,000 -1,440 Descending Miami Center
11:33AM 28.4458 -81.5031 45° Northeast 259 298 2,000 -540 Descending Miami Center
11:34AM 28.4917 -81.4536 43° Northeast 235 270 1,900 -300 Descending Miami Center
11:35AM 28.5169 -81.4125 55° Northeast 177 204 1,400 -540 Descending Miami Center
11:36AM 28.5308 -81.3697 70° East 151 174 900 -540 Descending Miami Center
11:39AM 28.5455 -81.3329 44° Northeast  Level Estimated
11:46AM 28.5455 -81.3329 North  Level Estimated